Little Boston, Washington
Current Conditions -  °F | °C
As of 5:53 AM on Friday 31 Oct 2014 (Local Time) from KPAE Reporting Station
Light Rain Light Rain  
Wind Chill: 50°   Ceiling: 4500
Heat Index: 50°   Visibility: 5mi
Dew Point: 49°   Wind: 3mph
Humidity: 96%   Direction: 280°W
Pressure: 29.7"   Gusts: NA
Location:  47.8525°N, 122.568°W
Report Text: KPAE 311253Z AUTO 28003KT 5SM -RA BR FEW002 OVC045 10/09 A2970 RMK AO2 SLP056 P0003 T01000094
Loading
Personal Weather Stations






























Interactive Weather Map
Tropical Storm Tracking
New forecast layout! Learn more

10-Day Weather Forecast

Advertisements
Track Severe Weather on mobile